Terminal Aerodrome Forecast
Issued by NWS

Home | Current Version | Previous Version | Text Only | Print | Product List | Glossary On
Versions: 1 2 3 4 5 6 7 8 9 10 11 12 13 14 15 16 17 18 19
000
FTUS42 KMHX 240556
TAFPGV
TAF
KPGV 240556Z 2406/2506 00000KT P6SM BKN014 BKN100
     FM240800 VRB04KT P6SM BKN007 OVC015
     FM241200 02006KT P6SM BKN035
      AMD LTD TO CLD VIS AND WIND=

USA.gov is the U.S. government's official web portal to all federal, state and local government web resources and services.